Time;durP1;ratioP1;P1;durP2;ratioP2;P2;SDS_P1;SDS_P2;PMS_P1;PMS_P2;Temp;Humidity;BMP_temperature;BMP_pressure;BME280_temperature;BME280_humidity;BME280_pressure;Samples;Min_cycle;Max_cycle;Signal;HPM_P1;HPM_P2
2021/12/15 00:01:16;;;;;;;56.08;21.73;;;;;;;;;;5043875;28;20045;-74
2021/12/15 00:03:42;;;;;;;51.80;20.58;;;;;;;;;;5046702;28;20045;-74
2021/12/15 00:06:13;;;;;;;46.40;21.27;;;;;;;;;;5045982;28;20394;-74
2021/12/15 00:08:40;;;;;;;64.32;22.85;;;;;;;;;;5042558;28;20223;-74
2021/12/15 00:11:06;;;;;;;60.35;23.13;;;;;;;;;;5043530;28;20059;-75
2021/12/15 00:13:33;;;;;;;57.47;21.10;;;;;;;;;;5042829;28;20103;-75
2021/12/15 00:15:59;;;;;;;51.55;20.90;;;;;;;;;;5043541;28;20043;-75
2021/12/15 00:18:26;;;;;;;42.28;20.70;;;;;;;;;;5045787;28;20033;-75
2021/12/15 00:20:52;;;;;;;57.75;22.33;;;;;;;;;;5042687;28;20033;-75
2021/12/15 00:23:18;;;;;;;50.30;21.13;;;;;;;;;;5047070;28;20033;-74
2021/12/15 00:25:44;;;;;;;59.28;22.45;;;;;;;;;;5048374;28;20048;-74
2021/12/15 00:28:10;;;;;;;60.70;23.23;;;;;;;;;;5045372;28;20041;-75
2021/12/15 00:30:38;;;;;;;58.67;21.65;;;;;;;;;;5042232;28;20067;-75
2021/12/15 00:33:04;;;;;;;54.75;22.90;;;;;;;;;;5047271;28;20994;-74
2021/12/15 00:35:30;;;;;;;54.83;21.52;;;;;;;;;;5050583;28;20055;-75
2021/12/15 00:37:56;;;;;;;53.35;22.48;;;;;;;;;;5047756;28;20036;-75
2021/12/15 00:40:23;;;;;;;57.72;24.13;;;;;;;;;;5043644;28;20452;-74
2021/12/15 00:42:49;;;;;;;59.58;23.10;;;;;;;;;;5048129;28;20113;-75
2021/12/15 00:45:15;;;;;;;55.65;22.75;;;;;;;;;;5042964;28;20391;-75
2021/12/15 00:47:43;;;;;;;57.85;22.45;;;;;;;;;;5046974;28;20116;-75
2021/12/15 00:50:10;;;;;;;58.88;23.95;;;;;;;;;;5046993;28;20455;-75
2021/12/15 00:52:37;;;;;;;58.60;24.10;;;;;;;;;;5046146;28;20113;-75
2021/12/15 00:55:04;;;;;;;59.20;24.73;;;;;;;;;;5045851;28;20025;-75
2021/12/15 00:57:30;;;;;;;58.85;25.70;;;;;;;;;;5041854;28;20033;-75
2021/12/15 00:59:57;;;;;;;67.45;24.35;;;;;;;;;;5046039;28;20049;-75
2021/12/15 01:02:23;;;;;;;65.05;24.83;;;;;;;;;;5045249;28;20033;-75
2021/12/15 01:04:49;;;;;;;57.35;25.58;;;;;;;;;;5043414;28;20049;-75
2021/12/15 01:07:16;;;;;;;66.25;24.98;;;;;;;;;;5052561;28;20044;-75
2021/12/15 01:09:48;;;;;;;66.50;26.40;;;;;;;;;;5045352;28;20495;-75
2021/12/15 01:20:33;;;;;;;70.22;25.35;;;;;;;;;;5038597;28;20100;-75
2021/12/15 01:23:04;;;;;;;57.67;26.20;;;;;;;;;;5044483;28;20036;-75
2021/12/15 01:25:32;;;;;;;59.13;27.23;;;;;;;;;;5033829;28;20037;-74
2021/12/15 01:27:58;;;;;;;66.03;26.67;;;;;;;;;;5044453;28;20474;-75
2021/12/15 01:30:27;;;;;;;65.72;27.88;;;;;;;;;;5043025;28;20060;-74
2021/12/15 01:32:53;;;;;;;68.00;27.00;;;;;;;;;;5046197;28;20024;-75
2021/12/15 01:35:19;;;;;;;69.40;27.17;;;;;;;;;;5041018;28;20483;-75
2021/12/15 01:37:46;;;;;;;71.30;27.55;;;;;;;;;;5042337;28;20030;-75
2021/12/15 01:40:20;;;;;;;65.57;26.38;;;;;;;;;;5025790;28;20103;-74
2021/12/15 01:42:46;;;;;;;76.03;27.00;;;;;;;;;;5045220;28;20036;-74
2021/12/15 01:48:16;;;;;;;62.88;27.77;;;;;;;;;;5049093;28;20040;-74
2021/12/15 01:50:43;;;;;;;61.28;27.23;;;10.40;99.90;;;;;;5044828;28;20030;-74
2021/12/15 01:53:10;;;;;;;62.83;28.02;;;;;;;;;;5040654;28;20029;-73
2021/12/15 01:55:36;;;;;;;74.35;28.13;;;;;;;;;;5044913;28;20501;-74
2021/12/15 01:58:02;;;;;;;66.05;27.13;;;;;;;;;;5040081;28;20128;-74
2021/12/15 02:00:36;;;;;;;55.90;27.77;;;;;;;;;;5025205;28;20487;-75
2021/12/15 02:03:02;;;;;;;64.75;27.88;;;;;;;;;;5051043;28;20025;-75
2021/12/15 02:05:29;;;;;;;72.72;28.92;;;;;;;;;;5044832;28;20033;-75
2021/12/15 02:07:55;;;;;;;61.53;27.52;;;;;;;;;;5042766;28;20021;-74
2021/12/15 02:10:26;;;;;;;63.05;28.42;;;;;;;;;;5041407;28;20033;-74
2021/12/15 02:12:52;;;;;;;65.43;27.40;;;;;;;;;;5044625;28;20095;-74
2021/12/15 02:15:23;;;;;;;70.05;30.75;;;;;;;;;;5040323;28;20124;-74
2021/12/15 02:17:49;;;;;;;67.97;29.95;;;;;;;;;;5043554;28;20394;-74
2021/12/15 02:20:17;;;;;;;71.05;29.50;;;;;;;;;;5047090;28;20468;-75
2021/12/15 02:22:44;;;;;;;71.05;29.17;;;;;;;;;;5039263;28;20047;-75
2021/12/15 02:25:12;;;;;;;66.00;29.27;;;;;;;;;;5050609;28;20465;-74
2021/12/15 02:27:38;;;;;;;75.35;31.45;;;;;;;;;;5028376;28;20033;-75
2021/12/15 02:30:21;;;;;;;60.80;29.67;;;;;;;;;;5037476;28;20053;-75
2021/12/15 02:38:10;;;;;;;83.47;32.30;;;;;;;;;;5045409;28;20055;-75
2021/12/15 02:40:36;;;;;;;76.45;30.67;;;;;;;;;;5049702;28;20035;-75
2021/12/15 02:43:02;;;;;;;81.75;31.92;;;;;;;;;;5044613;28;20033;-75
2021/12/15 02:45:28;;;;;;;86.95;33.45;;;;;;;;;;5030824;28;20033;-75
2021/12/15 02:47:54;;;;;;;73.28;31.13;;;;;;;;;;5042956;28;20489;-76
2021/12/15 02:50:24;;;;;;;64.68;30.35;;;;;;;;;;5026481;28;20029;-75
2021/12/15 02:52:50;;;;;;;75.40;32.35;;;;;;;;;;5030510;28;20060;-75
2021/12/15 02:55:17;;;;;;;68.97;31.88;;;;;;;;;;5042439;28;20479;-75
2021/12/15 02:57:43;;;;;;;68.15;30.77;;;;;;;;;;5046733;28;20531;-75
2021/12/15 03:00:18;;;;;;;72.85;31.23;;;;;;;;;;5041507;28;20044;-75
2021/12/15 03:05:42;;;;;;;66.68;32.25;;;;;;;;;;5045556;28;20060;-75
2021/12/15 03:08:23;;;;;;;68.47;30.25;;;;;;;;;;5025725;28;20107;-75
2021/12/15 03:16:21;;;;;;;62.08;29.40;;;;;;;;;;5040016;28;20060;-75
2021/12/15 03:18:47;;;;;;;76.15;30.73;;;;;;;;;;5042635;28;20036;-75
2021/12/15 03:21:15;;;;;;;64.05;29.80;;;;;;;;;;5034238;28;20030;-75
2021/12/15 03:23:50;;;;;;;68.35;30.58;;;;;;;;;;5040523;28;20044;-75
2021/12/15 03:26:21;;;;;;;72.70;29.80;;;;;;;;;;5048224;28;20391;-75
2021/12/15 03:37:08;;;;;;;62.20;31.02;;;;;;;;;;5042004;28;20438;-75
2021/12/15 03:39:43;;;;;;;66.85;30.83;;;;;;;;;;5033010;28;20382;-74
2021/12/15 03:42:10;;;;;;;71.70;30.85;;;;;;;;;;5042242;28;20033;-75
2021/12/15 03:44:42;;;;;;;68.57;30.10;;;10.10;99.90;;;;;;5047241;28;20151;-75
2021/12/15 03:47:09;;;;;;;66.47;31.15;;;;;;;;;;5038763;28;20391;-75
2021/12/15 03:49:36;;;;;;;67.25;29.77;;;;;;;;;;5055908;28;20401;-75
2021/12/15 03:52:02;;;;;;;72.57;31.15;;;;;;;;;;5028987;28;20034;-74
2021/12/15 03:54:28;;;;;;;71.05;29.70;;;;;;;;;;5045601;28;20040;-75
2021/12/15 03:56:55;;;;;;;59.35;27.70;;;;;;;;;;5061117;28;20486;-74
2021/12/15 03:59:23;;;;;;;69.32;32.03;;;;;;;;;;5042876;28;20029;-74
2021/12/15 04:01:49;;;;;;;64.82;29.55;;;;;;;;;;5051750;28;20033;-74
2021/12/15 04:04:15;;;;;;;69.72;28.98;;;;;;;;;;5025766;28;20033;-74
2021/12/15 04:06:42;;;;;;;68.20;30.25;;;;;;;;;;5049765;28;20135;-74
2021/12/15 04:09:10;;;;;;;64.35;29.77;;;;;;;;;;5049322;28;20432;-73
2021/12/15 04:11:37;;;;;;;67.43;29.65;;;;;;;;;;5040472;28;20478;-73
2021/12/15 04:14:08;;;;;;;77.40;31.73;;;;;;;;;;5047074;28;20075;-73
2021/12/15 04:19:01;;;;;;;69.38;30.98;;;;;;;;;;5064823;28;20561;-74
2021/12/15 04:21:28;;;;;;;65.90;29.55;;;;;;;;;;5046324;28;20098;-74
2021/12/15 04:23:55;;;;;;;68.38;30.80;;;;;;;;;;5034811;28;20037;-74
2021/12/15 04:26:21;;;;;;;61.80;29.20;;;;;;;;;;5044657;28;20044;-73
2021/12/15 04:28:48;;;;;;;72.20;29.98;;;;;;;;;;5050111;28;20040;-74
2021/12/15 04:31:24;;;;;;;65.68;29.38;;;;;;;;;;5029158;28;20025;-74
2021/12/15 04:33:55;;;;;;;74.40;29.92;;;;;;;;;;5050448;28;20736;-74
2021/12/15 04:36:22;;;;;;;66.32;31.30;;;;;;;;;;5048503;28;20059;-74
2021/12/15 04:38:48;;;;;;;71.13;31.30;;;;;;;;;;5044349;28;20048;-74
2021/12/15 04:41:16;;;;;;;73.40;32.05;;;;;;;;;;5038702;28;20421;-73
2021/12/15 04:43:42;;;;;;;66.68;29.77;;;;;;;;;;5040164;28;20036;-73
2021/12/15 04:46:10;;;;;;;69.13;32.13;;;;;;;;;;5050391;28;20040;-74
2021/12/15 04:48:36;;;;;;;75.05;30.25;;;;;;;;;;5043604;28;20063;-74
2021/12/15 04:51:03;;;;;;;74.65;30.80;;;;;;;;;;5065582;28;20036;-75
2021/12/15 04:53:29;;;;;;;77.88;31.30;;;;;;;;;;5044843;28;20021;-76
2021/12/15 04:55:55;;;;;;;74.57;32.13;;;;;;;;;;5042862;28;20041;-76
2021/12/15 04:58:21;;;;;;;79.18;31.13;;;;;;;;;;5043194;28;20040;-76
2021/12/15 05:00:53;;;;;;;77.50;31.75;;;;;;;;;;5043936;28;20045;-76
2021/12/15 05:03:19;;;;;;;65.83;31.47;;;;;;;;;;5020435;28;20542;-75
2021/12/15 05:05:45;;;;;;;75.03;31.65;;;;;;;;;;5018035;28;20323;-76
2021/12/15 05:08:11;;;;;;;77.90;29.55;;;;;;;;;;5006923;28;20053;-75
2021/12/15 05:10:38;;;;;;;70.25;32.80;;;;;;;;;;5025679;28;20030;-75
2021/12/15 05:13:04;;;;;;;75.15;31.83;;;;;;;;;;5027715;28;20121;-76
2021/12/15 05:15:31;;;;;;;66.68;28.95;;;;;;;;;;5019161;28;20038;-75
2021/12/15 05:17:57;;;;;;;70.70;31.40;;;;;;;;;;5028110;28;20064;-75
2021/12/15 05:20:24;;;;;;;73.03;31.98;;;;;;;;;;5021021;28;20052;-74
2021/12/15 05:22:51;;;;;;;73.20;32.47;;;;;;;;;;5028925;28;20033;-74
2021/12/15 05:25:17;;;;;;;67.50;31.50;;;;;;;;;;5024393;28;20236;-74
2021/12/15 05:27:43;;;;;;;63.63;31.77;;;;;;;;;;5012075;28;20615;-74
2021/12/15 05:30:10;;;;;;;75.57;31.45;;;;;;;;;;5027151;28;20116;-75
2021/12/15 05:32:40;;;;;;;72.45;30.17;;;;;;;;;;5028401;28;20391;-75
2021/12/15 05:35:06;;;;;;;77.25;30.95;;;;;;;;;;5006843;28;20041;-78
2021/12/15 05:37:32;;;;;;;73.82;30.25;;;;;;;;;;5016151;28;20034;-77
2021/12/15 05:39:59;;;;;;;68.85;29.63;;;;;;;;;;5018584;28;20052;-76
2021/12/15 05:42:26;;;;;;;73.07;29.40;;;;;;;;;;5019484;28;20029;-76
2021/12/15 05:44:52;;;;;;;78.35;28.98;;;;;;;;;;5022879;28;20048;-76
2021/12/15 05:47:20;;;;;;;79.65;29.63;;;;;;;;;;5020584;28;20033;-76
2021/12/15 05:49:46;;;;;;;89.75;37.30;;;;;;;;;;5024197;28;20026;-77
2021/12/15 05:52:13;;;;;;;68.75;27.75;;;;;;;;;;5019282;28;20100;-76
2021/12/15 05:54:39;;;;;;;68.90;28.40;;;;;;;;;;5021244;28;20030;-76
2021/12/15 05:57:07;;;;;;;61.67;28.42;;;;;;;;;;5018330;28;20034;-76
2021/12/15 05:59:34;;;;;;;73.90;28.73;;;;;;;;;;5026386;28;20029;-76
2021/12/15 06:02:00;;;;;;;62.58;26.98;;;;;;;;;;5023225;28;20095;-76
2021/12/15 06:04:26;;;;;;;77.53;29.65;;;;;;;;;;5043875;28;20025;-76
2021/12/15 06:06:52;;;;;;;73.85;28.15;;;;;;;;;;5046518;28;20049;-75
2021/12/15 06:09:18;;;;;;;69.18;29.85;;;;;;;;;;5041253;28;20134;-76
2021/12/15 06:11:49;;;;;;;62.70;27.48;;;;;;;;;;5042367;28;20026;-76
2021/12/15 06:14:22;;;;;;;66.63;28.83;;;;;;;;;;5044610;28;20032;-78
2021/12/15 06:16:49;;;;;;;77.45;36.30;;;;;;;;;;5043412;28;20400;-76
2021/12/15 06:19:15;;;;;;;57.45;27.20;;;;;;;;;;5050094;28;20043;-76
2021/12/15 06:21:41;;;;;;;63.00;26.85;;;;;;;;;;5023845;28;20090;-76
2021/12/15 06:24:07;;;;;;;64.90;28.20;;;;;;;;;;5037122;28;20092;-76
2021/12/15 06:26:34;;;;;;;66.80;27.65;;;;;;;;;;5042187;28;20053;-77
2021/12/15 06:29:00;;;;;;;59.83;27.75;;;;;;;;;;5043275;28;20116;-76
2021/12/15 06:31:27;;;;;;;60.65;26.30;;;;;;;;;;5052040;28;20036;-76
2021/12/15 06:33:53;;;;;;;58.13;27.40;;;;;;;;;;5046877;28;20021;-76
2021/12/15 06:36:22;;;;;;;56.72;25.25;;;;;;;;;;5040825;28;20091;-76
2021/12/15 06:38:50;;;;;;;66.35;28.65;;;;;;;;;;5035781;28;20021;-76
2021/12/15 06:41:16;;;;;;;60.67;26.92;;;;;;;;;;5043065;28;20095;-76
2021/12/15 06:43:45;;;;;;;69.30;27.67;;;;;;;;;;5042544;28;20030;-75
2021/12/15 06:46:52;;;;;;;54.10;26.15;;;;;;;;;;5047620;28;20053;-75
2021/12/15 07:00:15;;;;;;;53.63;24.98;;;;;;;;;;5040370;28;20395;-76
2021/12/15 07:02:42;;;;;;;84.60;41.35;;;;;;;;;;5019663;28;20075;-77
2021/12/15 07:05:08;;;;;;;58.10;25.02;;;;;;;;;;5032214;28;20044;-76
2021/12/15 07:07:39;;;;;;;54.08;25.50;;;;;;;;;;5041418;28;20395;-74
2021/12/15 07:10:06;;;;;;;53.00;24.73;;;;;;;;;;5026721;28;20527;-74
2021/12/15 07:12:32;;;;;;;59.28;25.30;;;;;;;;;;5035387;28;20103;-75
2021/12/15 07:14:58;;;;;;;54.58;23.45;;;;;;;;;;5039809;28;20123;-74
2021/12/15 07:17:25;;;;;;;56.28;23.10;;;;;;;;;;5039623;28;20041;-75
2021/12/15 07:22:33;;;;;;;42.60;20.85;;;;;;;;;;5039652;28;20112;-75
2021/12/15 07:25:01;;;;;;;43.95;21.20;;;;;;;;;;5042245;28;20033;-75
2021/12/15 07:27:27;;;;;;;46.05;20.08;;;;;;;;;;5034442;28;20075;-74
2021/12/15 07:29:53;;;;;;;40.90;20.27;;;;;;;;;;5044549;28;20306;-75
2021/12/15 07:32:19;;;;;;;50.58;20.48;;;;;;;;;;5032495;28;20087;-76
2021/12/15 07:34:45;;;;;;;48.83;21.85;;;;;;;;;;5047616;28;20040;-75
2021/12/15 07:37:11;;;;;;;44.03;20.92;;;;;;;;;;5042007;28;20032;-75
2021/12/15 07:39:38;;;;;;;45.13;19.38;;;;;;;;;;5048386;28;20387;-76
2021/12/15 07:42:11;;;;;;;48.10;21.17;;;;;;;;;;5053726;28;20029;-75
2021/12/15 07:44:37;;;;;;;54.75;22.08;;;;;;;;;;5044513;28;20033;-75
2021/12/15 07:47:04;;;;;;;50.63;22.05;;;;;;;;;;5042578;28;20026;-74
2021/12/15 07:49:33;;;;;;;50.28;22.20;;;;;;;;;;5052854;28;20095;-75
2021/12/15 07:52:02;;;;;;;51.95;21.15;;;;;;;;;;5048471;28;20108;-74
2021/12/15 07:54:29;;;;;;;53.55;23.17;;;;;;;;;;5044412;28;20049;-75
2021/12/15 07:56:56;;;;;;;54.03;24.17;;;;;;;;;;5043957;28;20031;-75
2021/12/15 07:59:22;;;;;;;56.47;21.50;;;;;;;;;;5053241;28;20029;-75
2021/12/15 08:01:48;;;;;;;60.15;23.52;;;;;;;;;;5032115;28;20046;-75
2021/12/15 08:04:14;;;;;;;54.90;23.73;;;;;;;;;;5007474;28;20499;-74
2021/12/15 08:06:40;;;;;;;53.75;22.23;;;;;;;;;;5029188;28;20045;-75
2021/12/15 08:09:06;;;;;;;54.85;22.80;;;;;;;;;;5027436;28;20041;-74
2021/12/15 08:11:32;;;;;;;53.85;21.48;;;;;;;;;;5024449;28;20523;-75
2021/12/15 08:13:58;;;;;;;56.53;20.73;;;;;;;;;;5011720;28;20069;-75
2021/12/15 08:16:25;;;;;;;51.72;21.17;;;;;;;;;;5022268;28;20148;-74
2021/12/15 08:18:51;;;;;;;56.03;20.98;;;;;;;;;;5024975;28;20029;-75
2021/12/15 08:21:18;;;;;;;53.22;22.38;;;;;;;;;;5029613;28;20575;-75
2021/12/15 08:23:44;;;;;;;46.80;21.55;;;;;;;;;;5013461;28;20036;-75
2021/12/15 08:26:10;;;;;;;46.83;21.48;;;;;;;;;;5006487;28;20034;-75
2021/12/15 08:28:36;;;;;;;50.78;20.52;;;;;;;;;;5025359;28;20542;-75
2021/12/15 08:31:02;;;;;;;52.92;21.42;;;;;;;;;;5033246;28;20040;-75
2021/12/15 08:33:29;;;;;;;58.45;22.85;;;;;;;;;;5027388;28;20111;-75
2021/12/15 08:35:58;;;;;;;47.25;21.95;;;;;;;;;;5029523;28;20030;-75
2021/12/15 08:38:26;;;;;;;46.30;21.52;;;;;;;;;;5010262;28;20068;-75
2021/12/15 08:40:53;;;;;;;51.90;22.77;;;;;;;;;;5033493;28;20164;-75
2021/12/15 08:43:20;;;;;;;49.63;23.00;;;;;;;;;;5028417;28;20277;-74
2021/12/15 08:45:51;;;;;;;53.55;22.42;;;;;;;;;;5014963;28;20038;-75
2021/12/15 08:48:17;;;;;;;58.47;23.05;;;;;;;;;;5027804;28;20057;-75
2021/12/15 08:50:43;;;;;;;48.30;22.13;;;;;;;;;;5031069;28;20072;-75
2021/12/15 08:53:12;;;;;;;51.38;22.63;;;;;;;;;;5028418;28;20026;-75
2021/12/15 08:55:42;;;;;;;42.88;20.55;;;;;;;;;;5021819;28;20041;-75
2021/12/15 08:58:11;;;;;;;51.33;21.73;;;;;;;;;;5016998;28;20025;-75
2021/12/15 09:00:37;;;;;;;46.17;21.20;;;;;;;;;;5026263;28;20052;-75
2021/12/15 09:03:03;;;;;;;44.28;20.20;;;;;;;;;;5042155;28;20041;-75
2021/12/15 09:05:29;;;;;;;48.78;20.80;;;;;;;;;;5045145;28;20043;-75
2021/12/15 09:07:58;;;;;;;42.70;19.95;;;;;;;;;;5052754;28;20110;-75
2021/12/15 09:10:25;;;;;;;46.90;19.63;;;;;;;;;;5030503;28;20037;-75
2021/12/15 09:12:51;;;;;;;44.13;20.05;;;;;;;;;;5045169;28;20022;-75
2021/12/15 09:15:18;;;;;;;45.38;21.08;;;;;;;;;;5046310;28;20032;-75
2021/12/15 09:17:44;;;;;;;40.58;20.25;;;;;;;;;;5028005;28;20052;-75
2021/12/15 09:20:12;;;;;;;40.10;19.42;;;;;;;;;;5047656;28;20037;-75
2021/12/15 09:22:39;;;;;;;41.90;18.35;;;;;;;;;;5024999;28;20044;-75
2021/12/15 09:25:07;;;;;;;41.63;18.55;;;;;;;;;;5045279;28;20116;-75
2021/12/15 09:27:33;;;;;;;44.33;19.15;;;;;;;;;;5050360;28;20132;-75
2021/12/15 09:29:59;;;;;;;54.03;20.95;;;;;;;;;;5048533;28;20825;-75
2021/12/15 09:32:25;;;;;;;36.40;19.67;;;;;;;;;;5050759;28;20494;-75
2021/12/15 09:34:51;;;;;;;42.00;17.55;;;;;;;;;;5040665;28;20039;-75
2021/12/15 09:37:19;;;;;;;39.08;18.40;;;;;;;;;;5049690;28;20112;-75
2021/12/15 09:39:45;;;;;;;45.47;18.73;;;;;;;;;;5047649;28;20053;-75
2021/12/15 09:42:12;;;;;;;41.10;17.98;;;;;;;;;;5046321;28;20033;-75
2021/12/15 09:44:38;;;;;;;41.17;16.85;;;;;;;;;;5052241;28;20021;-75
2021/12/15 09:47:13;;;;;;;42.63;18.70;;;;;;;;;;5044633;28;20084;-75
2021/12/15 10:03:25;;;;;;;38.10;17.20;;;;;;;;;;5037604;28;20063;-75
2021/12/15 10:06:03;;;;;;;34.42;15.20;;;;;;;;;;5049497;28;20052;-75
2021/12/15 10:11:45;;;;;;;39.33;14.75;;;;;;;;;;5043370;28;20111;-74
2021/12/15 10:19:41;;;;;;;31.65;13.57;;;;;;;;;;5044748;28;20035;-75
2021/12/15 10:22:08;;;;;;;35.10;13.85;;;;;;;;;;5038556;28;20490;-75
2021/12/15 10:24:55;;;;;;;37.67;15.60;;;;;;;;;;5045760;28;20115;-75
2021/12/15 10:27:39;;;;;;;28.17;13.30;;;;;;;;;;5036978;28;20140;-75
2021/12/15 10:30:38;;;;;;;27.98;12.65;;;10.40;99.90;;;;;;5051917;28;20037;-75
2021/12/15 10:33:04;;;;;;;27.45;11.88;;;;;;;;;;5041022;28;20025;-75
2021/12/15 10:35:33;;;;;;;22.77;11.18;;;;;;;;;;5050628;28;20029;-75
2021/12/15 10:38:18;;;;;;;19.65;9.13;;;;;;;;;;5026476;28;20041;-75
2021/12/15 10:40:44;;;;;;;18.90;9.52;;;;;;;;;;5041144;28;20027;-75
2021/12/15 10:43:11;;;;;;;17.00;10.15;;;;;;;;;;5046578;28;20540;-75
2021/12/15 10:45:38;;;;;;;18.52;8.55;;;;;;;;;;5044908;28;20030;-75
2021/12/15 10:48:10;;;;;;;18.40;9.75;;;;;;;;;;5048548;28;20029;-75
2021/12/15 10:50:37;;;;;;;23.02;8.93;;;;;;;;;;5048042;28;20391;-76
2021/12/15 10:53:03;;;;;;;18.65;8.55;;;;;;;;;;5049757;28;20494;-76
2021/12/15 10:55:31;;;;;;;16.05;8.70;;;;;;;;;;5044837;28;20399;-75
2021/12/15 10:57:57;;;;;;;18.27;9.40;;;;;;;;;;5052368;28;20037;-74
2021/12/15 11:00:23;;;;;;;19.63;8.68;;;;;;;;;;5045132;28;20079;-75
2021/12/15 11:02:49;;;;;;;19.73;8.18;;;;;;;;;;5038479;28;20076;-74
2021/12/15 11:05:20;;;;;;;14.95;7.78;;;;;;;;;;5038899;28;20046;-75
2021/12/15 11:07:52;;;;;;;18.63;8.23;;;;;;;;;;5042929;28;20547;-75
2021/12/15 11:10:24;;;;;;;17.40;8.02;;;;;;;;;;5044142;28;20017;-75
2021/12/15 11:12:53;;;;;;;17.27;7.38;;;;;;;;;;5032152;28;20598;-75
2021/12/15 11:15:27;;;;;;;18.63;8.90;;;;;;;;;;5033781;28;20150;-76
2021/12/15 11:17:58;;;;;;;24.17;9.10;;;;;;;;;;5047848;28;20041;-76
2021/12/15 11:20:26;;;;;;;23.52;9.70;;;;;;;;;;5045960;28;20041;-75
2021/12/15 11:23:03;;;;;;;22.55;8.73;;;;;;;;;;5041785;28;20375;-75
2021/12/15 11:25:41;;;;;;;23.27;7.95;;;;;;;;;;5046735;28;20056;-75
2021/12/15 11:28:08;;;;;;;22.02;7.95;;;;;;;;;;5025990;28;20018;-75
2021/12/15 11:30:37;;;;;;;11.80;6.30;;;;;;;;;;5044713;28;20029;-75
2021/12/15 11:33:11;;;;;;;19.73;7.20;;;;;;;;;;5039641;28;20065;-75
2021/12/15 11:35:40;;;;;;;19.75;7.13;;;;;;;;;;5038922;28;20032;-75
2021/12/15 11:38:20;;;;;;;18.48;6.95;;;;;;;;;;5023748;28;20037;-75
2021/12/15 11:41:03;;;;;;;14.35;6.80;;;;;;;;;;5043203;28;20033;-75
2021/12/15 11:43:29;;;;;;;20.15;7.43;;;;;;;;;;5027183;28;20033;-75
2021/12/15 11:45:56;;;;;;;17.60;7.55;;;;;;;;;;5038512;28;20036;-75
2021/12/15 11:48:25;;;;;;;20.60;6.78;;;;;;;;;;5024468;28;20033;-75
2021/12/15 11:50:53;;;;;;;21.65;7.63;;;;;;;;;;5034755;28;20026;-76
2021/12/15 11:53:29;;;;;;;19.63;6.88;;;;;;;;;;5041752;28;20021;-75
2021/12/15 11:56:09;;;;;;;21.17;7.88;;;;;;;;;;5047676;28;20059;-75
2021/12/15 11:58:35;;;;;;;21.08;7.43;;;;;;;;;;5046389;28;20044;-75
2021/12/15 12:01:02;;;;;;;19.80;7.22;;;;;;;;;;5038380;28;20038;-75
2021/12/15 12:03:28;;;;;;;18.77;6.82;;;;;;;;;;5021941;28;20133;-76
2021/12/15 12:05:54;;;;;;;17.30;5.50;;;;;;;;;;5042105;28;20033;-76
2021/12/15 12:08:20;;;;;;;13.98;6.50;;;;;;;;;;5054076;28;20083;-76
2021/12/15 12:10:51;;;;;;;14.70;6.15;;;;;;;;;;5041192;28;20021;-76
2021/12/15 12:13:28;;;;;;;17.53;4.93;;;;;;;;;;5036225;28;20034;-77
2021/12/15 12:15:57;;;;;;;16.20;5.07;;;;;;;;;;5048043;28;20295;-77
2021/12/15 12:18:24;;;;;;;14.93;5.18;;;;;;;;;;5034164;28;20032;-77
2021/12/15 12:20:52;;;;;;;10.73;4.47;;;;;;;;;;5048667;28;20870;-76
2021/12/15 12:23:20;;;;;;;12.63;4.53;;;;;;;;;;5050392;28;20083;-76
2021/12/15 12:25:48;;;;;;;10.65;4.25;;;;;;;;;;5037450;28;20033;-76
2021/12/15 12:28:16;;;;;;;11.75;3.70;;;;;;;;;;5026454;28;20028;-76
2021/12/15 12:30:43;;;;;;;13.98;3.88;;;;;;;;;;5052942;28;20025;-75
2021/12/15 12:33:10;;;;;;;11.82;3.70;;;;;;;;;;5044461;28;20552;-76
2021/12/15 12:35:39;;;;;;;14.80;3.80;;;;;;;;;;5053611;28;20037;-76
2021/12/15 12:38:08;;;;;;;9.25;3.53;;;;;;;;;;5044481;28;20033;-76
2021/12/15 12:40:38;;;;;;;13.95;3.10;;;;;;;;;;5051946;28;20088;-76
2021/12/15 12:43:25;;;;;;;16.55;3.60;;;10.90;99.90;;;;;;5045023;28;20059;-76
2021/12/15 12:46:21;;;;;;;14.73;3.13;;;;;;;;;;5059684;28;20039;-76
2021/12/15 13:00:10;;;;;;;10.52;3.25;;;;;;;;;;5042762;28;20080;-74
2021/12/15 13:02:45;;;;;;;7.15;2.15;;;;;;;;;;5049253;28;20072;-74
2021/12/15 13:05:30;;;;;;;11.43;2.17;;;;;;;;;;5043330;28;20087;-75
2021/12/15 13:07:58;;;;;;;10.60;3.08;;;;;;;;;;5048829;28;20188;-75
2021/12/15 13:10:54;;;;;;;11.77;2.47;;;10.70;99.90;;;;;;5044678;28;20084;-75
2021/12/15 13:13:22;;;;;;;9.68;1.90;;;;;;;;;;5041980;28;20025;-74
2021/12/15 13:15:53;;;;;;;6.72;2.13;;;;;;;;;;5049742;28;20082;-75
2021/12/15 13:18:19;;;;;;;11.38;2.70;;;;;;;;;;5043562;28;20095;-75
2021/12/15 13:21:00;;;;;;;7.68;1.60;;;10.60;99.90;;;;;;5051520;28;20043;-75
2021/12/15 13:23:42;;;;;;;6.63;1.67;;;;;;;;;;5045172;28;20026;-75
2021/12/15 13:28:55;;;;;;;10.13;2.80;;;;;;;;;;5051091;28;20040;-76
2021/12/15 13:31:26;;;;;;;13.27;1.90;;;;;;;;;;5040395;28;20025;-74
2021/12/15 13:34:00;;;;;;;6.85;1.45;;;;;;;;;;5030591;28;20022;-75
2021/12/15 13:36:30;;;;;;;6.97;3.13;;;;;;;;;;5039829;28;20426;-75
2021/12/15 13:39:10;;;;;;;7.20;1.60;;;10.60;99.90;;;;;;5047546;28;20036;-76
2021/12/15 13:41:47;;;;;;;8.90;2.38;;;;;;;;;;5042477;28;20082;-77
2021/12/15 13:44:18;;;;;;;6.03;1.50;;;;;;;;;;5059906;28;20040;-76
2021/12/15 13:46:44;;;;;;;5.00;1.40;;;;;;;;;;5046697;28;20110;-77
2021/12/15 13:49:10;;;;;;;1.52;1.00;;;;;;;;;;5030329;28;20427;-76
2021/12/15 13:51:55;;;;;;;6.15;1.45;;;;;;;;;;5032297;28;20028;-76
2021/12/15 13:54:22;;;;;;;5.97;1.33;;;;;;;;;;5044840;28;21193;-77
2021/12/15 13:56:54;;;;;;;5.32;1.30;;;10.40;99.90;;;;;;5052203;28;20040;-77
2021/12/15 13:59:58;;;;;;;9.48;1.23;;;10.50;99.90;;;;;;5044402;28;20040;-76
2021/12/15 14:02:26;;;;;;;8.77;1.27;;;;;;;;;;4987223;28;20038;-76
2021/12/15 14:04:52;;;;;;;5.80;1.30;;;;;;;;;;5030817;28;20040;-76
2021/12/15 14:07:37;;;;;;;5.93;1.52;;;;;;;;;;5041568;28;20039;-76
2021/12/15 14:10:24;;;;;;;6.25;1.35;;;;;;;;;;5045504;28;20112;-77
2021/12/15 14:12:50;;;;;;;3.08;0.93;;;;;;;;;;5015442;28;20187;-76
2021/12/15 14:15:36;;;;;;;7.43;1.40;;;;;;;;;;5051645;28;20048;-76
2021/12/15 14:18:17;;;;;;;8.02;0.93;;;;;;;;;;5039684;28;20555;-76
2021/12/15 14:20:45;;;;;;;7.85;1.10;;;;;;;;;;5052220;28;20041;-76
2021/12/15 14:23:13;;;;;;;3.17;1.13;;;;;;;;;;5044501;28;20029;-76
2021/12/15 14:25:39;;;;;;;3.65;0.82;;;;;;;;;;5043478;28;20163;-76
2021/12/15 14:28:16;;;;;;;2.33;0.98;;;;;;;;;;5045836;28;20025;-76
2021/12/15 14:30:44;;;;;;;4.60;0.80;;;;;;;;;;5047877;28;20126;-76
2021/12/15 14:33:22;;;;;;;2.63;0.85;;;;;;;;;;5049419;28;20466;-76
2021/12/15 14:35:49;;;;;;;10.07;1.25;;;;;;;;;;5040799;28;20037;-75
2021/12/15 14:38:15;;;;;;;4.20;1.00;;;;;;;;;;5046457;28;20036;-76
2021/12/15 14:40:41;;;;;;;5.57;1.02;;;;;;;;;;5044289;28;20387;-76
2021/12/15 14:43:11;;;;;;;5.78;1.25;;;;;;;;;;5042446;28;20029;-74
2021/12/15 14:45:37;;;;;;;4.82;0.95;;;;;;;;;;5042866;28;20044;-74
2021/12/15 14:48:15;;;;;;;6.00;0.95;;;;;;;;;;5048935;28;20026;-74
2021/12/15 14:50:41;;;;;;;4.00;1.05;;;;;;;;;;5044053;28;20108;-76
2021/12/15 14:53:08;;;;;;;8.23;1.17;;;;;;;;;;5039914;28;20037;-75
2021/12/15 14:55:35;;;;;;;1.55;0.68;;;;;;;;;;5031742;28;20043;-74
2021/12/15 14:58:01;;;;;;;6.28;0.93;;;;;;;;;;5042506;28;20037;-74
2021/12/15 15:00:38;;;;;;;5.70;1.27;;;;;;;;;;5048376;28;20371;-74
2021/12/15 15:03:06;;;;;;;4.63;1.40;;;;;;;;;;5011220;28;20038;-74
2021/12/15 15:05:44;;;;;;;6.38;1.25;;;;;;;;;;5017406;28;20092;-75
2021/12/15 15:08:22;;;;;;;2.08;0.50;;;;;;;;;;5023477;28;20037;-75
2021/12/15 15:10:48;;;;;;;5.53;1.08;;;;;;;;;;5018040;28;20153;-74
2021/12/15 15:13:18;;;;;;;5.30;1.13;;;;;;;;;;5008792;28;20117;-75
2021/12/15 15:15:47;;;;;;;5.00;0.98;;;;;;;;;;5016235;28;20024;-74
2021/12/15 15:18:22;;;;;;;6.43;1.00;;;;;;;;;;5026702;28;20064;-75
2021/12/15 15:20:50;;;;;;;5.70;1.13;;;;;;;;;;5022576;28;20529;-74
2021/12/15 15:23:19;;;;;;;5.35;1.17;;;;;;;;;;5026247;28;20488;-74
2021/12/15 15:25:47;;;;;;;6.15;1.20;;;;;;;;;;5027061;28;20030;-74
2021/12/15 15:28:15;;;;;;;6.18;1.08;;;;;;;;;;5025030;28;20033;-75
2021/12/15 15:30:42;;;;;;;6.20;2.22;;;;;;;;;;5020358;28;20045;-77
2021/12/15 15:33:08;;;;;;;6.68;1.20;;;;;;;;;;5024179;28;20485;-74
2021/12/15 15:35:36;;;;;;;6.05;1.60;;;;;;;;;;5020249;28;20057;-75
2021/12/15 15:38:08;;;;;;;5.10;1.30;;;;;;;;;;5024211;28;20036;-74
2021/12/15 15:40:35;;;;;;;;;;;10.10;99.90;;;;;;5023500;28;20179;-74
2021/12/15 15:43:01;;;;;;;3.72;0.77;;;;;;;;;;5037977;28;19976;-74
2021/12/15 15:45:29;;;;;;;6.50;0.85;;;;;;;;;;5024265;28;20033;-74
2021/12/15 15:47:57;;;;;;;8.35;1.00;;;;;;;;;;5028488;28;20383;-74
2021/12/15 15:50:23;;;;;;;2.30;0.70;;;;;;;;;;5024703;28;20089;-74
2021/12/15 15:52:51;;;;;;;5.32;1.00;;;;;;;;;;5020575;28;20472;-74
2021/12/15 15:55:18;;;;;;;3.03;0.80;;;;;;;;;;5030259;28;20033;-75
2021/12/15 15:57:50;;;;;;;5.38;0.95;;;;;;;;;;5011708;28;20454;-75